sensor_id;sensor_type;location;lat;lon;timestamp;pressure;altitude;pressure_sealevel;temperature;humidity
9969;BME280;5025;48.890;9.278;2024-02-16T00:01:13;98640.47;;;11.68;67.48
9969;BME280;5025;48.890;9.278;2024-02-16T00:03:39;98638.34;;;11.70;67.51
9969;BME280;5025;48.890;9.278;2024-02-16T00:06:04;98625.88;;;11.69;67.43
9969;BME280;5025;48.890;9.278;2024-02-16T00:08:30;98628.81;;;11.67;67.48
9969;BME280;5025;48.890;9.278;2024-02-16T00:10:55;98629.06;;;11.65;67.77
9969;BME280;5025;48.890;9.278;2024-02-16T00:13:20;98628.50;;;11.63;67.70
9969;BME280;5025;48.890;9.278;2024-02-16T00:15:47;98629.53;;;11.62;67.86
9969;BME280;5025;48.890;9.278;2024-02-16T00:18:12;98628.72;;;11.62;68.05
9969;BME280;5025;48.890;9.278;2024-02-16T00:20:38;98624.63;;;11.59;67.91
9969;BME280;5025;48.890;9.278;2024-02-16T00:23:03;98637.56;;;11.57;68.26
9969;BME280;5025;48.890;9.278;2024-02-16T00:25:28;98622.88;;;11.53;68.55
9969;BME280;5025;48.890;9.278;2024-02-16T00:27:54;98631.56;;;11.55;68.39
9969;BME280;5025;48.890;9.278;2024-02-16T00:30:20;98633.69;;;11.53;68.51
9969;BME280;5025;48.890;9.278;2024-02-16T00:32:45;98632.03;;;11.52;68.46
9969;BME280;5025;48.890;9.278;2024-02-16T00:35:11;98626.63;;;11.52;68.79
9969;BME280;5025;48.890;9.278;2024-02-16T00:37:36;98622.88;;;11.53;68.76
9969;BME280;5025;48.890;9.278;2024-02-16T00:40:03;98618.50;;;11.52;68.75
9969;BME280;5025;48.890;9.278;2024-02-16T00:42:29;98622.88;;;11.53;68.91
9969;BME280;5025;48.890;9.278;2024-02-16T00:44:56;98621.22;;;11.52;68.69
9969;BME280;5025;48.890;9.278;2024-02-16T00:47:21;98619.59;;;11.51;68.93
9969;BME280;5025;48.890;9.278;2024-02-16T00:49:48;98618.75;;;11.51;68.87
9969;BME280;5025;48.890;9.278;2024-02-16T00:52:14;98625.22;;;11.50;68.99
9969;BME280;5025;48.890;9.278;2024-02-16T00:54:39;98617.34;;;11.48;69.08
9969;BME280;5025;48.890;9.278;2024-02-16T00:57:04;98613.25;;;11.45;69.38
9969;BME280;5025;48.890;9.278;2024-02-16T00:59:30;98615.13;;;11.45;69.07
9969;BME280;5025;48.890;9.278;2024-02-16T01:01:55;98606.41;;;11.43;69.19
9969;BME280;5025;48.890;9.278;2024-02-16T01:04:20;98609.72;;;11.45;69.36
9969;BME280;5025;48.890;9.278;2024-02-16T01:06:45;98603.72;;;11.43;69.55
9969;BME280;5025;48.890;9.278;2024-02-16T01:09:11;98603.47;;;11.44;69.58
9969;BME280;5025;48.890;9.278;2024-02-16T01:11:38;98601.00;;;11.43;69.53
9969;BME280;5025;48.890;9.278;2024-02-16T01:14:05;98614.19;;;11.39;69.61
9969;BME280;5025;48.890;9.278;2024-02-16T01:16:30;98617.03;;;11.33;69.74
9969;BME280;5025;48.890;9.278;2024-02-16T01:18:55;98612.09;;;11.29;70.08
9969;BME280;5025;48.890;9.278;2024-02-16T01:21:21;98613.16;;;11.28;70.06
9969;BME280;5025;48.890;9.278;2024-02-16T01:23:46;98617.28;;;11.31;70.22
9969;BME280;5025;48.890;9.278;2024-02-16T01:26:12;98616.66;;;11.29;70.20
9969;BME280;5025;48.890;9.278;2024-02-16T01:28:37;98618.47;;;11.23;70.37
9969;BME280;5025;48.890;9.278;2024-02-16T01:31:02;98624.81;;;11.17;70.50
9969;BME280;5025;48.890;9.278;2024-02-16T01:33:28;98618.22;;;11.13;70.44
9969;BME280;5025;48.890;9.278;2024-02-16T01:35:54;98611.41;;;11.10;70.62
9969;BME280;5025;48.890;9.278;2024-02-16T01:38:19;98612.25;;;11.11;70.61
9969;BME280;5025;48.890;9.278;2024-02-16T01:40:46;98598.72;;;11.11;70.93
9969;BME280;5025;48.890;9.278;2024-02-16T01:43:11;98606.59;;;11.12;71.00
9969;BME280;5025;48.890;9.278;2024-02-16T01:45:37;98608.59;;;11.17;71.14
9969;BME280;5025;48.890;9.278;2024-02-16T01:48:02;98606.94;;;11.16;70.97
9969;BME280;5025;48.890;9.278;2024-02-16T01:50:28;98619.50;;;11.10;71.13
9969;BME280;5025;48.890;9.278;2024-02-16T01:52:54;98608.94;;;11.09;71.29
9969;BME280;5025;48.890;9.278;2024-02-16T01:55:20;98610.00;;;11.08;71.16
9969;BME280;5025;48.890;9.278;2024-02-16T01:57:47;98613.75;;;11.07;71.24
9969;BME280;5025;48.890;9.278;2024-02-16T02:00:14;98610.81;;;11.08;71.81
9969;BME280;5025;48.890;9.278;2024-02-16T02:02:41;98617.03;;;11.09;71.54
9969;BME280;5025;48.890;9.278;2024-02-16T02:05:06;98611.63;;;11.09;71.67
9969;BME280;5025;48.890;9.278;2024-02-16T02:07:32;98601.91;;;11.08;71.69
9969;BME280;5025;48.890;9.278;2024-02-16T02:09:57;98613.06;;;11.11;71.66
9969;BME280;5025;48.890;9.278;2024-02-16T02:12:23;98612.00;;;11.12;71.78
9969;BME280;5025;48.890;9.278;2024-02-16T02:14:49;98602.00;;;11.13;71.77
9969;BME280;5025;48.890;9.278;2024-02-16T02:17:14;98600.13;;;11.13;71.69
9969;BME280;5025;48.890;9.278;2024-02-16T02:19:39;98591.19;;;11.13;71.95
9969;BME280;5025;48.890;9.278;2024-02-16T02:22:13;98589.06;;;11.15;71.97
9969;BME280;5025;48.890;9.278;2024-02-16T02:24:38;98596.13;;;11.16;71.74
9969;BME280;5025;48.890;9.278;2024-02-16T02:27:03;98585.31;;;11.16;72.05
9969;BME280;5025;48.890;9.278;2024-02-16T02:29:29;98583.19;;;11.18;71.96
9969;BME280;5025;48.890;9.278;2024-02-16T02:31:55;98580.50;;;11.18;72.06
9969;BME280;5025;48.890;9.278;2024-02-16T02:34:20;98579.09;;;11.16;72.15
9969;BME280;5025;48.890;9.278;2024-02-16T02:36:45;98575.78;;;11.13;71.88
9969;BME280;5025;48.890;9.278;2024-02-16T02:39:11;98579.81;;;11.11;72.38
9969;BME280;5025;48.890;9.278;2024-02-16T02:41:38;98574.16;;;11.12;72.56
9969;BME280;5025;48.890;9.278;2024-02-16T02:44:03;98573.81;;;11.09;72.45
9969;BME280;5025;48.890;9.278;2024-02-16T02:46:29;98570.53;;;11.07;72.61
9969;BME280;5025;48.890;9.278;2024-02-16T02:48:54;98573.81;;;11.09;72.63
9969;BME280;5025;48.890;9.278;2024-02-16T02:51:19;98572.66;;;11.05;72.85
9969;BME280;5025;48.890;9.278;2024-02-16T02:53:44;98572.66;;;11.05;72.61
9969;BME280;5025;48.890;9.278;2024-02-16T02:56:10;98559.13;;;11.05;72.81
9969;BME280;5025;48.890;9.278;2024-02-16T02:58:35;98550.19;;;11.04;72.69
9969;BME280;5025;48.890;9.278;2024-02-16T03:01:00;98559.72;;;11.07;72.77
9969;BME280;5025;48.890;9.278;2024-02-16T03:03:26;98559.94;;;11.05;72.97
9969;BME280;5025;48.890;9.278;2024-02-16T03:05:51;98563.25;;;10.96;73.05
9969;BME280;5025;48.890;9.278;2024-02-16T03:08:16;98569.00;;;10.87;74.09
9969;BME280;5025;48.890;9.278;2024-02-16T03:10:41;98568.19;;;10.87;73.82
9969;BME280;5025;48.890;9.278;2024-02-16T03:13:09;98566.31;;;10.87;73.98
9969;BME280;5025;48.890;9.278;2024-02-16T03:15:34;98563.13;;;10.90;73.96
9969;BME280;5025;48.890;9.278;2024-02-16T03:18:01;98552.81;;;10.87;74.15
9969;BME280;5025;48.890;9.278;2024-02-16T03:20:26;98560.44;;;10.90;74.23
9969;BME280;5025;48.890;9.278;2024-02-16T03:22:52;98556.09;;;10.89;74.37
9969;BME280;5025;48.890;9.278;2024-02-16T03:25:17;98561.28;;;10.91;74.49
9969;BME280;5025;48.890;9.278;2024-02-16T03:27:43;98563.75;;;10.92;74.60
9969;BME280;5025;48.890;9.278;2024-02-16T03:30:08;98556.69;;;10.91;74.62
9969;BME280;5025;48.890;9.278;2024-02-16T03:32:34;98554.22;;;10.90;74.90
9969;BME280;5025;48.890;9.278;2024-02-16T03:34:59;98558.34;;;10.92;74.95
9969;BME280;5025;48.890;9.278;2024-02-16T03:37:25;98555.63;;;10.92;75.24
9969;BME280;5025;48.890;9.278;2024-02-16T03:39:50;98562.09;;;10.91;75.41
9969;BME280;5025;48.890;9.278;2024-02-16T03:42:16;98560.19;;;10.92;75.46
9969;BME280;5025;48.890;9.278;2024-02-16T03:44:43;98568.06;;;10.93;75.52
9969;BME280;5025;48.890;9.278;2024-02-16T03:47:08;98572.41;;;10.94;75.60
9969;BME280;5025;48.890;9.278;2024-02-16T03:49:34;98583.22;;;10.94;75.45
9969;BME280;5025;48.890;9.278;2024-02-16T03:51:59;98577.94;;;10.88;75.64
9969;BME280;5025;48.890;9.278;2024-02-16T03:54:24;98584.63;;;10.85;75.90
9969;BME280;5025;48.890;9.278;2024-02-16T03:56:55;98586.16;;;10.81;75.69
9969;BME280;5025;48.890;9.278;2024-02-16T03:59:21;98587.22;;;10.80;76.01
9969;BME280;5025;48.890;9.278;2024-02-16T04:01:46;98581.00;;;10.80;75.99
9969;BME280;5025;48.890;9.278;2024-02-16T04:04:12;98591.78;;;10.80;75.98
9969;BME280;5025;48.890;9.278;2024-02-16T04:06:38;98584.75;;;10.79;75.89
9969;BME280;5025;48.890;9.278;2024-02-16T04:09:03;98583.13;;;10.77;76.06
9969;BME280;5025;48.890;9.278;2024-02-16T04:11:31;98582.06;;;10.79;75.95
9969;BME280;5025;48.890;9.278;2024-02-16T04:13:57;98577.94;;;10.76;76.16
9969;BME280;5025;48.890;9.278;2024-02-16T04:16:22;98580.41;;;10.77;76.31
9969;BME280;5025;48.890;9.278;2024-02-16T04:18:49;98572.31;;;10.77;76.34
9969;BME280;5025;48.890;9.278;2024-02-16T04:21:15;98576.44;;;10.80;76.23
9969;BME280;5025;48.890;9.278;2024-02-16T04:23:40;98573.72;;;10.80;76.34
9969;BME280;5025;48.890;9.278;2024-02-16T04:26:05;98576.06;;;10.76;76.51
9969;BME280;5025;48.890;9.278;2024-02-16T04:28:32;98577.72;;;10.77;76.55
9969;BME280;5025;48.890;9.278;2024-02-16T04:30:57;98575.25;;;10.76;76.47
9969;BME280;5025;48.890;9.278;2024-02-16T04:33:22;98582.41;;;10.70;76.97
9969;BME280;5025;48.890;9.278;2024-02-16T04:35:47;98587.00;;;10.70;76.94
9969;BME280;5025;48.890;9.278;2024-02-16T04:38:13;98590.50;;;10.70;76.81
9969;BME280;5025;48.890;9.278;2024-02-16T04:40:38;98595.09;;;10.70;77.06
9969;BME280;5025;48.890;9.278;2024-02-16T04:43:04;98596.59;;;10.66;77.05
9969;BME280;5025;48.890;9.278;2024-02-16T04:45:29;98598.25;;;10.67;77.16
9969;BME280;5025;48.890;9.278;2024-02-16T04:47:55;98596.59;;;10.66;77.08
9969;BME280;5025;48.890;9.278;2024-02-16T04:50:20;98593.91;;;10.66;77.29
9969;BME280;5025;48.890;9.278;2024-02-16T04:52:46;98590.63;;;10.64;77.26
9969;BME280;5025;48.890;9.278;2024-02-16T04:55:11;98602.00;;;10.66;77.12
9969;BME280;5025;48.890;9.278;2024-02-16T04:57:36;98603.66;;;10.67;77.41
9969;BME280;5025;48.890;9.278;2024-02-16T05:00:02;98598.03;;;10.68;77.26
9969;BME280;5025;48.890;9.278;2024-02-16T05:02:28;98599.44;;;10.71;77.60
9969;BME280;5025;48.890;9.278;2024-02-16T05:04:53;98597.31;;;10.73;77.72
9969;BME280;5025;48.890;9.278;2024-02-16T05:07:19;98599.78;;;10.74;77.47
9969;BME280;5025;48.890;9.278;2024-02-16T05:09:44;98613.06;;;10.76;77.59
9969;BME280;5025;48.890;9.278;2024-02-16T05:12:10;98600.38;;;10.76;77.67
9969;BME280;5025;48.890;9.278;2024-02-16T05:14:35;98608.47;;;10.76;77.61
9969;BME280;5025;48.890;9.278;2024-02-16T05:17:01;98601.78;;;10.79;77.72
9969;BME280;5025;48.890;9.278;2024-02-16T05:19:26;98608.84;;;10.80;77.76
9969;BME280;5025;48.890;9.278;2024-02-16T05:21:51;98597.19;;;10.80;77.61
9969;BME280;5025;48.890;9.278;2024-02-16T05:24:16;98606.94;;;10.81;77.65
9969;BME280;5025;48.890;9.278;2024-02-16T05:26:42;98605.06;;;10.81;77.63
9969;BME280;5025;48.890;9.278;2024-02-16T05:29:07;98607.53;;;10.83;77.61
9969;BME280;5025;48.890;9.278;2024-02-16T05:31:33;98609.41;;;10.82;77.51
9969;BME280;5025;48.890;9.278;2024-02-16T05:33:58;98612.13;;;10.82;77.62
9969;BME280;5025;48.890;9.278;2024-02-16T05:36:24;98612.69;;;10.84;77.57
9969;BME280;5025;48.890;9.278;2024-02-16T05:38:55;98618.94;;;10.85;77.62
9969;BME280;5025;48.890;9.278;2024-02-16T05:41:21;98616.47;;;10.83;77.51
9969;BME280;5025;48.890;9.278;2024-02-16T05:43:46;98621.50;;;10.80;77.49
9969;BME280;5025;48.890;9.278;2024-02-16T05:46:17;98624.44;;;10.78;77.70
9969;BME280;5025;48.890;9.278;2024-02-16T05:48:45;98624.44;;;10.78;77.60
9969;BME280;5025;48.890;9.278;2024-02-16T05:51:11;98623.06;;;10.75;77.69
9969;BME280;5025;48.890;9.278;2024-02-16T05:53:40;98620.94;;;10.77;77.92
9969;BME280;5025;48.890;9.278;2024-02-16T05:56:06;98623.63;;;10.77;77.84
9969;BME280;5025;48.890;9.278;2024-02-16T05:58:32;98628.78;;;10.79;77.71
9969;BME280;5025;48.890;9.278;2024-02-16T06:00:58;98624.44;;;10.78;77.96
9969;BME280;5025;48.890;9.278;2024-02-16T06:03:24;98626.56;;;10.76;77.81
9969;BME280;5025;48.890;9.278;2024-02-16T06:05:49;98629.25;;;10.76;77.79
9969;BME280;5025;48.890;9.278;2024-02-16T06:08:14;98635.94;;;10.73;77.78
9969;BME280;5025;48.890;9.278;2024-02-16T06:10:44;98636.78;;;10.74;77.89
9969;BME280;5025;48.890;9.278;2024-02-16T06:13:15;98654.63;;;10.75;77.57
9969;BME280;5025;48.890;9.278;2024-02-16T06:15:41;98644.03;;;10.73;77.53
9969;BME280;5025;48.890;9.278;2024-02-16T06:18:06;98651.34;;;10.73;77.74
9969;BME280;5025;48.890;9.278;2024-02-16T06:20:31;98649.69;;;10.72;77.79
9969;BME280;5025;48.890;9.278;2024-02-16T06:22:57;98649.69;;;10.72;77.37
9969;BME280;5025;48.890;9.278;2024-02-16T06:25:22;98651.81;;;10.70;77.60
9969;BME280;5025;48.890;9.278;2024-02-16T06:27:47;98651.47;;;10.66;77.72
9969;BME280;5025;48.890;9.278;2024-02-16T06:30:13;98656.84;;;10.66;77.84
9969;BME280;5025;48.890;9.278;2024-02-16T06:32:39;98663.06;;;10.67;77.62
9969;BME280;5025;48.890;9.278;2024-02-16T06:35:06;98664.34;;;10.64;77.73
9969;BME280;5025;48.890;9.278;2024-02-16T06:37:32;98668.94;;;10.64;77.60
9969;BME280;5025;48.890;9.278;2024-02-16T06:39:57;98674.09;;;10.65;77.62
9969;BME280;5025;48.890;9.278;2024-02-16T06:42:23;98674.09;;;10.65;77.77
9969;BME280;5025;48.890;9.278;2024-02-16T06:44:48;98672.44;;;10.64;77.73
9969;BME280;5025;48.890;9.278;2024-02-16T06:47:13;98674.34;;;10.64;77.72
9969;BME280;5025;48.890;9.278;2024-02-16T06:49:38;98684.09;;;10.65;77.46
9969;BME280;5025;48.890;9.278;2024-02-16T06:52:04;98678.09;;;10.63;77.53
9969;BME280;5025;48.890;9.278;2024-02-16T06:54:30;98676.81;;;10.65;77.46
9969;BME280;5025;48.890;9.278;2024-02-16T06:56:55;98678.09;;;10.63;77.62
9969;BME280;5025;48.890;9.278;2024-02-16T06:59:21;98676.22;;;10.63;77.73
9969;BME280;5025;48.890;9.278;2024-02-16T07:01:46;98678.09;;;10.63;77.73
9969;BME280;5025;48.890;9.278;2024-02-16T07:04:11;98686.19;;;10.63;77.70
9969;BME280;5025;48.890;9.278;2024-02-16T07:06:36;98688.88;;;10.63;77.91
9969;BME280;5025;48.890;9.278;2024-02-16T07:09:02;98690.53;;;10.64;77.63
9969;BME280;5025;48.890;9.278;2024-02-16T07:11:27;98690.53;;;10.64;77.66
9969;BME280;5025;48.890;9.278;2024-02-16T07:13:53;98690.31;;;10.65;77.78
9969;BME280;5025;48.890;9.278;2024-02-16T07:16:18;98695.47;;;10.67;77.66
9969;BME280;5025;48.890;9.278;2024-02-16T07:18:44;98712.25;;;10.57;77.88
9969;BME280;5025;48.890;9.278;2024-02-16T07:21:09;98707.78;;;10.51;77.92
9969;BME280;5025;48.890;9.278;2024-02-16T07:23:34;98709.06;;;10.48;77.94
9969;BME280;5025;48.890;9.278;2024-02-16T07:26:00;98712.13;;;10.52;77.89
9969;BME280;5025;48.890;9.278;2024-02-16T07:28:26;98710.25;;;10.52;78.19
9969;BME280;5025;48.890;9.278;2024-02-16T07:30:52;98713.19;;;10.51;78.03
9969;BME280;5025;48.890;9.278;2024-02-16T07:33:18;98717.53;;;10.52;78.15
9969;BME280;5025;48.890;9.278;2024-02-16T07:35:43;98713.53;;;10.54;78.06
9969;BME280;5025;48.890;9.278;2024-02-16T07:38:09;98721.03;;;10.52;78.15
9969;BME280;5025;48.890;9.278;2024-02-16T07:40:34;98724.31;;;10.54;78.57
9969;BME280;5025;48.890;9.278;2024-02-16T07:43:00;98726.81;;;10.56;78.20
9969;BME280;5025;48.890;9.278;2024-02-16T07:45:26;98733.00;;;10.56;78.15
9969;BME280;5025;48.890;9.278;2024-02-16T07:47:51;98724.31;;;10.54;78.16
9969;BME280;5025;48.890;9.278;2024-02-16T07:50:23;98722.81;;;10.58;78.22
9969;BME280;5025;48.890;9.278;2024-02-16T07:52:50;98718.81;;;10.61;78.11
9969;BME280;5025;48.890;9.278;2024-02-16T07:55:15;98727.53;;;10.63;78.01
9969;BME280;5025;48.890;9.278;2024-02-16T07:57:43;98734.34;;;10.66;78.08
9969;BME280;5025;48.890;9.278;2024-02-16T08:00:08;98728.69;;;10.67;77.85
9969;BME280;5025;48.890;9.278;2024-02-16T08:02:36;98732.81;;;10.70;77.66
9969;BME280;5025;48.890;9.278;2024-02-16T08:05:01;98732.00;;;10.69;77.76
9969;BME280;5025;48.890;9.278;2024-02-16T08:07:26;98725.78;;;10.69;78.08
9969;BME280;5025;48.890;9.278;2024-02-16T08:09:52;98726.16;;;10.72;78.16
9969;BME280;5025;48.890;9.278;2024-02-16T08:12:17;98724.84;;;10.75;77.72
9969;BME280;5025;48.890;9.278;2024-02-16T08:14:43;98724.38;;;10.78;77.70
9969;BME280;5025;48.890;9.278;2024-02-16T08:17:09;98729.31;;;10.81;77.49
9969;BME280;5025;48.890;9.278;2024-02-16T08:19:36;98727.22;;;10.83;77.61
9969;BME280;5025;48.890;9.278;2024-02-16T08:22:02;98734.66;;;10.88;77.53
9969;BME280;5025;48.890;9.278;2024-02-16T08:24:28;98735.00;;;10.91;77.29
9969;BME280;5025;48.890;9.278;2024-02-16T08:26:53;98733.72;;;10.94;77.48
9969;BME280;5025;48.890;9.278;2024-02-16T08:29:19;98737.56;;;10.98;77.30
9969;BME280;5025;48.890;9.278;2024-02-16T08:31:47;98733.84;;;10.99;77.64
9969;BME280;5025;48.890;9.278;2024-02-16T08:34:12;98742.91;;;11.05;77.66
9969;BME280;5025;48.890;9.278;2024-02-16T08:36:38;98736.78;;;11.09;77.34
9969;BME280;5025;48.890;9.278;2024-02-16T08:39:05;98733.38;;;11.14;77.71
9969;BME280;5025;48.890;9.278;2024-02-16T08:41:31;98739.50;;;11.21;77.43
9969;BME280;5025;48.890;9.278;2024-02-16T08:43:57;98746.66;;;11.27;77.50
9969;BME280;5025;48.890;9.278;2024-02-16T08:46:22;98732.22;;;11.34;77.31
9969;BME280;5025;48.890;9.278;2024-02-16T08:48:48;98733.50;;;11.43;77.06
9969;BME280;5025;48.890;9.278;2024-02-16T08:51:14;98735.41;;;11.54;76.95
9969;BME280;5025;48.890;9.278;2024-02-16T08:53:39;98724.44;;;11.61;77.12
9969;BME280;5025;48.890;9.278;2024-02-16T08:56:09;98728.19;;;11.72;76.82
9969;BME280;5025;48.890;9.278;2024-02-16T08:58:35;98731.38;;;11.80;76.56
9969;BME280;5025;48.890;9.278;2024-02-16T09:01:00;98734.50;;;11.89;76.71
9969;BME280;5025;48.890;9.278;2024-02-16T09:03:26;98728.19;;;11.95;76.48
9969;BME280;5025;48.890;9.278;2024-02-16T09:05:51;98738.75;;;12.09;76.39
9969;BME280;5025;48.890;9.278;2024-02-16T09:08:16;98730.81;;;12.19;76.08
9969;BME280;5025;48.890;9.278;2024-02-16T09:10:41;98740.78;;;12.30;75.83
9969;BME280;5025;48.890;9.278;2024-02-16T09:13:07;98733.69;;;12.41;75.88
9969;BME280;5025;48.890;9.278;2024-02-16T09:15:34;98742.09;;;12.57;75.15
9969;BME280;5025;48.890;9.278;2024-02-16T09:17:59;98740.88;;;12.64;74.63
9969;BME280;5025;48.890;9.278;2024-02-16T09:20:25;98737.19;;;12.70;74.17
9969;BME280;5025;48.890;9.278;2024-02-16T09:22:50;98741.88;;;12.75;73.66
9969;BME280;5025;48.890;9.278;2024-02-16T09:25:15;98744.44;;;12.82;73.05
9969;BME280;5025;48.890;9.278;2024-02-16T09:27:41;98746.16;;;12.88;72.63
9969;BME280;5025;48.890;9.278;2024-02-16T09:30:10;98740.59;;;12.95;72.17
9969;BME280;5025;48.890;9.278;2024-02-16T09:32:39;98742.06;;;13.02;71.57
9969;BME280;5025;48.890;9.278;2024-02-16T09:35:05;98736.81;;;13.13;71.26
9969;BME280;5025;48.890;9.278;2024-02-16T09:37:31;98738.06;;;13.22;71.00
9969;BME280;5025;48.890;9.278;2024-02-16T09:39:56;98742.50;;;13.28;70.66
9969;BME280;5025;48.890;9.278;2024-02-16T09:42:23;98741.53;;;13.34;70.07
9969;BME280;5025;48.890;9.278;2024-02-16T09:44:49;98752.75;;;13.43;69.56
9969;BME280;5025;48.890;9.278;2024-02-16T09:47:15;98759.09;;;13.49;68.70
9969;BME280;5025;48.890;9.278;2024-02-16T09:49:44;98766.25;;;13.55;67.82
9969;BME280;5025;48.890;9.278;2024-02-16T09:52:10;98773.94;;;13.63;67.32
9969;BME280;5025;48.890;9.278;2024-02-16T09:54:38;98772.13;;;13.69;66.92
9969;BME280;5025;48.890;9.278;2024-02-16T09:57:04;98776.81;;;13.73;66.51
9969;BME280;5025;48.890;9.278;2024-02-16T09:59:29;98777.72;;;13.79;66.24
9969;BME280;5025;48.890;9.278;2024-02-16T10:02:03;98781.00;;;13.81;65.60
9969;BME280;5025;48.890;9.278;2024-02-16T10:04:29;98789.09;;;13.76;63.96
9969;BME280;5025;48.890;9.278;2024-02-16T10:06:54;98791.91;;;13.86;63.94
9969;BME280;5025;48.890;9.278;2024-02-16T10:09:24;98792.88;;;13.97;63.75
9969;BME280;5025;48.890;9.278;2024-02-16T10:11:49;98792.63;;;13.98;62.53
9969;BME280;5025;48.890;9.278;2024-02-16T10:14:14;98794.03;;;14.01;62.08
9969;BME280;5025;48.890;9.278;2024-02-16T10:16:40;98797.19;;;14.15;62.18
9969;BME280;5025;48.890;9.278;2024-02-16T10:19:06;98793.94;;;14.35;62.05
9969;BME280;5025;48.890;9.278;2024-02-16T10:21:32;98791.84;;;14.42;60.89
9969;BME280;5025;48.890;9.278;2024-02-16T10:24:04;98798.53;;;14.57;60.87
9969;BME280;5025;48.890;9.278;2024-02-16T10:26:31;98799.53;;;14.73;60.56
9969;BME280;5025;48.890;9.278;2024-02-16T10:28:57;98802.63;;;14.81;60.76
9969;BME280;5025;48.890;9.278;2024-02-16T10:31:26;98792.41;;;14.94;60.19
9969;BME280;5025;48.890;9.278;2024-02-16T10:34:03;98807.78;;;15.10;59.83
9969;BME280;5025;48.890;9.278;2024-02-16T10:36:33;98798.97;;;14.98;57.86
9969;BME280;5025;48.890;9.278;2024-02-16T10:39:00;98803.88;;;15.01;57.71
9969;BME280;5025;48.890;9.278;2024-02-16T10:41:29;98810.25;;;15.12;57.77
9969;BME280;5025;48.890;9.278;2024-02-16T10:43:55;98808.16;;;15.19;57.60
9969;BME280;5025;48.890;9.278;2024-02-16T10:46:22;98804.09;;;15.21;57.29
9969;BME280;5025;48.890;9.278;2024-02-16T10:48:47;98810.22;;;15.06;56.62
9969;BME280;5025;48.890;9.278;2024-02-16T10:51:14;98808.88;;;15.09;56.60
9969;BME280;5025;48.890;9.278;2024-02-16T10:53:42;98814.34;;;15.14;56.80
9969;BME280;5025;48.890;9.278;2024-02-16T10:56:08;98806.81;;;15.21;56.93
9969;BME280;5025;48.890;9.278;2024-02-16T10:58:34;98808.00;;;15.31;56.91
9969;BME280;5025;48.890;9.278;2024-02-16T11:01:08;98815.66;;;15.39;57.16
9969;BME280;5025;48.890;9.278;2024-02-16T11:03:37;98813.22;;;15.42;57.23
9969;BME280;5025;48.890;9.278;2024-02-16T11:06:15;98815.44;;;15.46;57.42
9969;BME280;5025;48.890;9.278;2024-02-16T11:08:43;98812.47;;;15.47;57.61
9969;BME280;5025;48.890;9.278;2024-02-16T11:11:09;98820.34;;;15.49;57.69
9969;BME280;5025;48.890;9.278;2024-02-16T11:13:38;98810.06;;;15.51;57.74
9969;BME280;5025;48.890;9.278;2024-02-16T11:16:09;98813.88;;;15.55;57.78
9969;BME280;5025;48.890;9.278;2024-02-16T11:18:39;98813.34;;;15.58;57.86
9969;BME280;5025;48.890;9.278;2024-02-16T11:21:05;98813.34;;;15.58;57.86
9969;BME280;5025;48.890;9.278;2024-02-16T11:23:34;98808.75;;;15.58;57.68
9969;BME280;5025;48.890;9.278;2024-02-16T11:26:01;98802.78;;;15.62;57.90
9969;BME280;5025;48.890;9.278;2024-02-16T11:28:27;98811.25;;;15.65;57.97
9969;BME280;5025;48.890;9.278;2024-02-16T11:30:53;98814.25;;;15.69;58.20
9969;BME280;5025;48.890;9.278;2024-02-16T11:33:18;98807.22;;;15.73;58.04
9969;BME280;5025;48.890;9.278;2024-02-16T11:35:52;98809.19;;;15.77;58.11
9969;BME280;5025;48.890;9.278;2024-02-16T11:38:18;98805.66;;;15.77;58.19
9969;BME280;5025;48.890;9.278;2024-02-16T11:41:10;98808.38;;;15.77;58.07
9969;BME280;5025;48.890;9.278;2024-02-16T11:43:35;98802.66;;;15.79;58.29
9969;BME280;5025;48.890;9.278;2024-02-16T11:46:14;98798.84;;;15.80;58.29
9969;BME280;5025;48.890;9.278;2024-02-16T11:48:41;98799.69;;;15.80;58.51
9969;BME280;5025;48.890;9.278;2024-02-16T11:51:06;98806.22;;;15.84;58.53
9969;BME280;5025;48.890;9.278;2024-02-16T11:53:32;98801.56;;;15.85;58.53
9969;BME280;5025;48.890;9.278;2024-02-16T11:55:57;98796.66;;;15.82;58.54
9969;BME280;5025;48.890;9.278;2024-02-16T11:58:23;98799.97;;;15.84;58.66
9969;BME280;5025;48.890;9.278;2024-02-16T12:00:50;98804.31;;;15.85;58.40
9969;BME280;5025;48.890;9.278;2024-02-16T12:03:25;98795.31;;;15.84;58.38
9969;BME280;5025;48.890;9.278;2024-02-16T12:05:56;98797.25;;;15.84;58.31
9969;BME280;5025;48.890;9.278;2024-02-16T12:08:22;98799.69;;;15.85;58.38
9969;BME280;5025;48.890;9.278;2024-02-16T12:10:48;98796.13;;;15.85;58.21
9969;BME280;5025;48.890;9.278;2024-02-16T12:13:17;98806.22;;;15.84;58.08
9969;BME280;5025;48.890;9.278;2024-02-16T12:15:44;98800.78;;;15.84;57.98
9969;BME280;5025;48.890;9.278;2024-02-16T12:18:10;98803.22;;;15.86;57.81
9969;BME280;5025;48.890;9.278;2024-02-16T12:20:35;98801.56;;;15.85;57.93
9969;BME280;5025;48.890;9.278;2024-02-16T12:23:10;98805.13;;;15.85;57.84
9969;BME280;5025;48.890;9.278;2024-02-16T12:25:36;98798.84;;;15.85;57.94
9969;BME280;5025;48.890;9.278;2024-02-16T12:28:01;98810.31;;;15.87;57.67
9969;BME280;5025;48.890;9.278;2024-02-16T12:30:26;98811.13;;;15.87;57.62
9969;BME280;5025;48.890;9.278;2024-02-16T12:32:51;98809.47;;;15.86;57.61
9969;BME280;5025;48.890;9.278;2024-02-16T12:35:18;98804.56;;;15.83;57.59
9969;BME280;5025;48.890;9.278;2024-02-16T12:37:43;98809.19;;;15.83;57.57
9969;BME280;5025;48.890;9.278;2024-02-16T12:40:08;98811.13;;;15.82;57.49
9969;BME280;5025;48.890;9.278;2024-02-16T12:42:34;98812.19;;;15.81;57.66
9969;BME280;5025;48.890;9.278;2024-02-16T12:44:59;98809.94;;;15.73;57.51
9969;BME280;5025;48.890;9.278;2024-02-16T12:47:24;98806.66;;;15.71;57.50
9969;BME280;5025;48.890;9.278;2024-02-16T12:49:50;98810.72;;;15.68;57.37
9969;BME280;5025;48.890;9.278;2024-02-16T12:52:20;98816.41;;;15.67;57.29
9969;BME280;5025;48.890;9.278;2024-02-16T12:54:47;98816.41;;;15.67;57.06
9969;BME280;5025;48.890;9.278;2024-02-16T12:57:12;98821.25;;;15.59;56.83
9969;BME280;5025;48.890;9.278;2024-02-16T12:59:38;98820.69;;;15.52;56.74
9969;BME280;5025;48.890;9.278;2024-02-16T13:02:03;98813.63;;;15.56;56.73
9969;BME280;5025;48.890;9.278;2024-02-16T13:04:29;98816.34;;;15.56;56.36
9969;BME280;5025;48.890;9.278;2024-02-16T13:06:56;98812.56;;;15.63;56.57
9969;BME280;5025;48.890;9.278;2024-02-16T13:09:21;98815.63;;;15.66;56.54
9969;BME280;5025;48.890;9.278;2024-02-16T13:11:46;98819.41;;;15.65;56.72
9969;BME280;5025;48.890;9.278;2024-02-16T13:14:19;98818.34;;;15.66;56.70
9969;BME280;5025;48.890;9.278;2024-02-16T13:16:44;98822.69;;;15.67;56.96